sensor_id;sensor_type;location;lat;lon;timestamp;P1;durP1;ratioP1;P2;durP2;ratioP2
8113;SDS011;4099;52.684;9.918;2023-07-20T00:02:44;2.83;;;2.63;;
8113;SDS011;4099;52.684;9.918;2023-07-20T00:07:47;2.77;;;2.57;;
8113;SDS011;4099;52.684;9.918;2023-07-20T00:12:52;2.70;;;2.50;;
8113;SDS011;4099;52.684;9.918;2023-07-20T00:17:54;2.70;;;2.50;;
8113;SDS011;4099;52.684;9.918;2023-07-20T00:22:57;2.40;;;2.20;;
8113;SDS011;4099;52.684;9.918;2023-07-20T00:27:59;2.20;;;2.10;;
8113;SDS011;4099;52.684;9.918;2023-07-20T00:33:01;2.00;;;1.90;;
8113;SDS011;4099;52.684;9.918;2023-07-20T00:38:04;3.17;;;1.97;;
8113;SDS011;4099;52.684;9.918;2023-07-20T00:43:06;2.20;;;2.10;;
8113;SDS011;4099;52.684;9.918;2023-07-20T00:48:09;2.13;;;1.90;;
8113;SDS011;4099;52.684;9.918;2023-07-20T00:53:12;2.40;;;2.13;;
8113;SDS011;4099;52.684;9.918;2023-07-20T00:58:14;4.03;;;2.10;;
8113;SDS011;4099;52.684;9.918;2023-07-20T01:03:16;2.20;;;1.77;;
8113;SDS011;4099;52.684;9.918;2023-07-20T01:08:21;3.10;;;1.80;;
8113;SDS011;4099;52.684;9.918;2023-07-20T01:13:29;2.00;;;1.90;;
8113;SDS011;4099;52.684;9.918;2023-07-20T01:18:31;1.97;;;1.87;;
8113;SDS011;4099;52.684;9.918;2023-07-20T01:23:46;2.10;;;2.00;;
8113;SDS011;4099;52.684;9.918;2023-07-20T01:29:11;3.63;;;3.33;;
8113;SDS011;4099;52.684;9.918;2023-07-20T01:34:24;3.07;;;2.87;;
8113;SDS011;4099;52.684;9.918;2023-07-20T01:39:27;2.73;;;2.30;;
8113;SDS011;4099;52.684;9.918;2023-07-20T01:44:29;2.67;;;2.30;;
8113;SDS011;4099;52.684;9.918;2023-07-20T01:49:32;1.70;;;1.60;;
8113;SDS011;4099;52.684;9.918;2023-07-20T01:54:34;2.77;;;1.90;;
8113;SDS011;4099;52.684;9.918;2023-07-20T01:59:36;2.47;;;2.00;;
8113;SDS011;4099;52.684;9.918;2023-07-20T02:04:39;2.40;;;1.83;;
8113;SDS011;4099;52.684;9.918;2023-07-20T02:09:41;2.30;;;2.10;;
8113;SDS011;4099;52.684;9.918;2023-07-20T02:14:43;1.70;;;1.60;;
8113;SDS011;4099;52.684;9.918;2023-07-20T02:19:46;1.80;;;1.70;;
8113;SDS011;4099;52.684;9.918;2023-07-20T02:24:51;1.97;;;1.87;;
8113;SDS011;4099;52.684;9.918;2023-07-20T02:29:53;2.20;;;2.00;;
8113;SDS011;4099;52.684;9.918;2023-07-20T02:34:57;2.03;;;1.93;;
8113;SDS011;4099;52.684;9.918;2023-07-20T02:39:59;2.50;;;2.30;;
8113;SDS011;4099;52.684;9.918;2023-07-20T02:45:02;2.57;;;2.30;;
8113;SDS011;4099;52.684;9.918;2023-07-20T02:50:07;2.67;;;2.20;;
8113;SDS011;4099;52.684;9.918;2023-07-20T02:55:09;2.10;;;1.90;;
8113;SDS011;4099;52.684;9.918;2023-07-20T03:00:12;3.20;;;2.10;;
8113;SDS011;4099;52.684;9.918;2023-07-20T03:05:18;4.23;;;2.40;;
8113;SDS011;4099;52.684;9.918;2023-07-20T03:10:20;1.87;;;1.77;;
8113;SDS011;4099;52.684;9.918;2023-07-20T03:15:22;2.10;;;2.00;;
8113;SDS011;4099;52.684;9.918;2023-07-20T03:20:26;3.67;;;2.13;;
8113;SDS011;4099;52.684;9.918;2023-07-20T03:25:28;2.57;;;2.37;;
8113;SDS011;4099;52.684;9.918;2023-07-20T03:30:31;2.60;;;2.40;;
8113;SDS011;4099;52.684;9.918;2023-07-20T03:35:34;3.30;;;3.00;;
8113;SDS011;4099;52.684;9.918;2023-07-20T03:40:37;3.17;;;2.80;;
8113;SDS011;4099;52.684;9.918;2023-07-20T03:45:40;3.30;;;2.93;;
8113;SDS011;4099;52.684;9.918;2023-07-20T03:50:43;3.37;;;3.07;;
8113;SDS011;4099;52.684;9.918;2023-07-20T03:55:45;3.87;;;3.57;;
8113;SDS011;4099;52.684;9.918;2023-07-20T04:00:48;4.10;;;3.40;;
8113;SDS011;4099;52.684;9.918;2023-07-20T04:05:54;3.60;;;3.30;;
8113;SDS011;4099;52.684;9.918;2023-07-20T04:10:56;4.00;;;3.33;;
8113;SDS011;4099;52.684;9.918;2023-07-20T04:15:58;4.10;;;3.70;;
8113;SDS011;4099;52.684;9.918;2023-07-20T04:21:01;5.03;;;3.90;;
8113;SDS011;4099;52.684;9.918;2023-07-20T04:26:03;6.20;;;4.60;;
8113;SDS011;4099;52.684;9.918;2023-07-20T04:31:10;4.60;;;4.20;;
8113;SDS011;4099;52.684;9.918;2023-07-20T04:36:14;5.20;;;4.70;;
8113;SDS011;4099;52.684;9.918;2023-07-20T04:41:19;4.30;;;4.00;;
8113;SDS011;4099;52.684;9.918;2023-07-20T04:46:23;5.10;;;4.70;;
8113;SDS011;4099;52.684;9.918;2023-07-20T04:51:27;4.90;;;4.40;;
8113;SDS011;4099;52.684;9.918;2023-07-20T04:56:30;4.90;;;4.40;;
8113;SDS011;4099;52.684;9.918;2023-07-20T05:01:35;4.83;;;4.43;;
8113;SDS011;4099;52.684;9.918;2023-07-20T05:06:38;5.03;;;4.53;;
8113;SDS011;4099;52.684;9.918;2023-07-20T05:11:40;4.73;;;4.30;;
8113;SDS011;4099;52.684;9.918;2023-07-20T05:16:42;5.73;;;5.13;;
8113;SDS011;4099;52.684;9.918;2023-07-20T05:21:45;5.03;;;4.53;;
8113;SDS011;4099;52.684;9.918;2023-07-20T05:26:48;6.67;;;4.80;;
8113;SDS011;4099;52.684;9.918;2023-07-20T05:31:50;4.80;;;4.40;;
8113;SDS011;4099;52.684;9.918;2023-07-20T05:36:54;3.87;;;3.00;;
8113;SDS011;4099;52.684;9.918;2023-07-20T05:41:56;3.43;;;3.17;;
8113;SDS011;4099;52.684;9.918;2023-07-20T05:46:58;2.87;;;2.47;;
8113;SDS011;4099;52.684;9.918;2023-07-20T05:52:01;2.90;;;1.83;;
8113;SDS011;4099;52.684;9.918;2023-07-20T05:57:03;2.07;;;1.87;;
8113;SDS011;4099;52.684;9.918;2023-07-20T06:02:06;1.43;;;1.33;;
8113;SDS011;4099;52.684;9.918;2023-07-20T06:07:09;2.93;;;2.00;;
8113;SDS011;4099;52.684;9.918;2023-07-20T06:12:11;2.80;;;1.87;;
8113;SDS011;4099;52.684;9.918;2023-07-20T06:17:14;1.83;;;1.70;;
8113;SDS011;4099;52.684;9.918;2023-07-20T06:22:17;2.27;;;2.07;;
8113;SDS011;4099;52.684;9.918;2023-07-20T06:27:19;2.00;;;1.90;;
8113;SDS011;4099;52.684;9.918;2023-07-20T06:32:20;2.70;;;2.60;;
8113;SDS011;4099;52.684;9.918;2023-07-20T06:37:24;2.90;;;2.70;;
8113;SDS011;4099;52.684;9.918;2023-07-20T06:42:26;3.30;;;3.10;;
8113;SDS011;4099;52.684;9.918;2023-07-20T06:47:28;5.67;;;5.00;;
8113;SDS011;4099;52.684;9.918;2023-07-20T06:52:32;6.00;;;5.40;;
8113;SDS011;4099;52.684;9.918;2023-07-20T06:57:34;6.17;;;5.70;;
8113;SDS011;4099;52.684;9.918;2023-07-20T07:02:36;5.30;;;4.90;;
8113;SDS011;4099;52.684;9.918;2023-07-20T07:07:39;6.20;;;5.70;;
8113;SDS011;4099;52.684;9.918;2023-07-20T07:12:41;6.43;;;5.10;;
8113;SDS011;4099;52.684;9.918;2023-07-20T07:17:43;5.07;;;4.67;;
8113;SDS011;4099;52.684;9.918;2023-07-20T07:22:46;5.07;;;4.67;;
8113;SDS011;4099;52.684;9.918;2023-07-20T07:27:48;4.73;;;4.43;;
8113;SDS011;4099;52.684;9.918;2023-07-20T07:32:50;3.30;;;3.10;;
8113;SDS011;4099;52.684;9.918;2023-07-20T07:37:53;3.53;;;3.30;;
8113;SDS011;4099;52.684;9.918;2023-07-20T07:42:55;3.13;;;2.83;;
8113;SDS011;4099;52.684;9.918;2023-07-20T07:47:57;1.90;;;1.80;;
8113;SDS011;4099;52.684;9.918;2023-07-20T07:53:00;1.73;;;1.63;;
8113;SDS011;4099;52.684;9.918;2023-07-20T07:58:03;2.13;;;1.50;;
8113;SDS011;4099;52.684;9.918;2023-07-20T08:03:05;1.40;;;1.30;;
8113;SDS011;4099;52.684;9.918;2023-07-20T08:08:09;2.10;;;1.53;;
8113;SDS011;4099;52.684;9.918;2023-07-20T08:13:11;2.07;;;1.53;;
8113;SDS011;4099;52.684;9.918;2023-07-20T08:18:13;1.93;;;1.57;;
8113;SDS011;4099;52.684;9.918;2023-07-20T08:23:16;2.63;;;2.07;;
8113;SDS011;4099;52.684;9.918;2023-07-20T08:28:18;2.00;;;1.60;;
8113;SDS011;4099;52.684;9.918;2023-07-20T08:33:20;1.93;;;1.70;;
8113;SDS011;4099;52.684;9.918;2023-07-20T08:38:23;1.60;;;1.50;;
8113;SDS011;4099;52.684;9.918;2023-07-20T08:43:25;1.43;;;1.33;;
8113;SDS011;4099;52.684;9.918;2023-07-20T08:48:28;1.33;;;1.10;;
8113;SDS011;4099;52.684;9.918;2023-07-20T08:53:33;2.20;;;1.30;;
8113;SDS011;4099;52.684;9.918;2023-07-20T08:58:35;1.20;;;1.00;;
8113;SDS011;4099;52.684;9.918;2023-07-20T09:03:38;1.03;;;0.93;;
8113;SDS011;4099;52.684;9.918;2023-07-20T09:08:44;2.70;;;1.10;;
8113;SDS011;4099;52.684;9.918;2023-07-20T09:13:46;1.17;;;0.80;;
8113;SDS011;4099;52.684;9.918;2023-07-20T09:18:47;0.90;;;0.80;;
8113;SDS011;4099;52.684;9.918;2023-07-20T09:23:51;1.23;;;0.93;;
8113;SDS011;4099;52.684;9.918;2023-07-20T09:28:57;0.97;;;0.80;;
8113;SDS011;4099;52.684;9.918;2023-07-20T09:33:59;2.20;;;1.20;;
8113;SDS011;4099;52.684;9.918;2023-07-20T09:39:03;1.10;;;0.90;;
8113;SDS011;4099;52.684;9.918;2023-07-20T09:44:05;1.33;;;1.23;;
8113;SDS011;4099;52.684;9.918;2023-07-20T09:49:10;1.37;;;0.90;;
8113;SDS011;4099;52.684;9.918;2023-07-20T09:54:14;1.17;;;0.83;;
8113;SDS011;4099;52.684;9.918;2023-07-20T09:59:16;1.17;;;0.97;;
8113;SDS011;4099;52.684;9.918;2023-07-20T10:04:17;1.00;;;0.90;;
8113;SDS011;4099;52.684;9.918;2023-07-20T10:09:24;1.10;;;0.90;;
8113;SDS011;4099;52.684;9.918;2023-07-20T10:14:26;0.67;;;0.67;;
8113;SDS011;4099;52.684;9.918;2023-07-20T10:19:34;1.30;;;0.83;;
8113;SDS011;4099;52.684;9.918;2023-07-20T10:24:46;1.00;;;0.90;;
8113;SDS011;4099;52.684;9.918;2023-07-20T10:29:49;0.80;;;0.77;;
8113;SDS011;4099;52.684;9.918;2023-07-20T10:34:53;0.90;;;0.90;;
8113;SDS011;4099;52.684;9.918;2023-07-20T10:39:58;1.83;;;1.10;;
8113;SDS011;4099;52.684;9.918;2023-07-20T10:45:39;2.33;;;1.00;;
8113;SDS011;4099;52.684;9.918;2023-07-20T10:50:42;1.13;;;1.03;;
8113;SDS011;4099;52.684;9.918;2023-07-20T10:55:46;1.63;;;0.93;;
8113;SDS011;4099;52.684;9.918;2023-07-20T11:00:54;1.90;;;1.10;;
8113;SDS011;4099;52.684;9.918;2023-07-20T11:11:33;1.90;;;1.00;;
8113;SDS011;4099;52.684;9.918;2023-07-20T11:16:37;1.03;;;1.00;;
8113;SDS011;4099;52.684;9.918;2023-07-20T11:21:41;0.83;;;0.83;;
8113;SDS011;4099;52.684;9.918;2023-07-20T11:26:46;1.23;;;0.90;;
8113;SDS011;4099;52.684;9.918;2023-07-20T11:31:49;2.30;;;1.00;;
8113;SDS011;4099;52.684;9.918;2023-07-20T11:36:51;0.93;;;0.80;;
8113;SDS011;4099;52.684;9.918;2023-07-20T11:41:55;1.00;;;0.90;;
8113;SDS011;4099;52.684;9.918;2023-07-20T11:47:00;2.40;;;1.20;;
8113;SDS011;4099;52.684;9.918;2023-07-20T11:52:04;1.90;;;1.30;;
8113;SDS011;4099;52.684;9.918;2023-07-20T11:57:09;1.47;;;0.97;;
8113;SDS011;4099;52.684;9.918;2023-07-20T12:02:17;1.00;;;0.90;;
8113;SDS011;4099;52.684;9.918;2023-07-20T12:07:19;1.20;;;0.80;;
8113;SDS011;4099;52.684;9.918;2023-07-20T12:12:22;2.20;;;1.30;;
8113;SDS011;4099;52.684;9.918;2023-07-20T12:17:26;1.97;;;1.17;;
8113;SDS011;4099;52.684;9.918;2023-07-20T12:22:28;1.57;;;0.97;;
8113;SDS011;4099;52.684;9.918;2023-07-20T12:27:31;1.37;;;1.13;;
8113;SDS011;4099;52.684;9.918;2023-07-20T12:32:33;2.07;;;1.30;;
8113;SDS011;4099;52.684;9.918;2023-07-20T12:37:35;2.47;;;1.30;;
8113;SDS011;4099;52.684;9.918;2023-07-20T12:42:38;2.43;;;1.67;;
8113;SDS011;4099;52.684;9.918;2023-07-20T12:47:41;2.80;;;1.60;;
8113;SDS011;4099;52.684;9.918;2023-07-20T12:52:43;2.30;;;1.77;;
8113;SDS011;4099;52.684;9.918;2023-07-20T12:57:47;2.27;;;1.70;;
8113;SDS011;4099;52.684;9.918;2023-07-20T13:02:48;2.37;;;1.87;;
8113;SDS011;4099;52.684;9.918;2023-07-20T13:07:50;2.70;;;1.70;;
8113;SDS011;4099;52.684;9.918;2023-07-20T13:12:53;2.00;;;1.60;;
8113;SDS011;4099;52.684;9.918;2023-07-20T13:17:56;1.77;;;1.63;;
8113;SDS011;4099;52.684;9.918;2023-07-20T13:22:57;2.00;;;1.40;;
8113;SDS011;4099;52.684;9.918;2023-07-20T13:28:01;2.40;;;1.33;;
8113;SDS011;4099;52.684;9.918;2023-07-20T13:33:03;3.60;;;1.50;;
8113;SDS011;4099;52.684;9.918;2023-07-20T13:38:05;1.90;;;1.40;;
8113;SDS011;4099;52.684;9.918;2023-07-20T13:43:08;1.60;;;1.50;;
8113;SDS011;4099;52.684;9.918;2023-07-20T13:48:09;2.40;;;1.50;;
8113;SDS011;4099;52.684;9.918;2023-07-20T13:53:11;2.77;;;1.20;;
8113;SDS011;4099;52.684;9.918;2023-07-20T13:58:15;2.40;;;1.17;;
8113;SDS011;4099;52.684;9.918;2023-07-20T14:03:17;1.27;;;1.03;;
8113;SDS011;4099;52.684;9.918;2023-07-20T14:08:19;1.70;;;0.93;;
8113;SDS011;4099;52.684;9.918;2023-07-20T14:13:23;1.80;;;1.10;;
8113;SDS011;4099;52.684;9.918;2023-07-20T14:18:25;1.67;;;1.10;;
8113;SDS011;4099;52.684;9.918;2023-07-20T14:23:26;1.17;;;0.70;;
8113;SDS011;4099;52.684;9.918;2023-07-20T14:28:30;3.60;;;1.90;;
8113;SDS011;4099;52.684;9.918;2023-07-20T14:33:32;3.23;;;1.93;;
8113;SDS011;4099;52.684;9.918;2023-07-20T14:38:34;4.30;;;1.93;;
8113;SDS011;4099;52.684;9.918;2023-07-20T14:43:38;2.23;;;1.50;;
8113;SDS011;4099;52.684;9.918;2023-07-20T14:48:39;2.40;;;2.20;;
8113;SDS011;4099;52.684;9.918;2023-07-20T14:53:41;4.50;;;4.10;;
8113;SDS011;4099;52.684;9.918;2023-07-20T14:58:44;8.03;;;6.83;;
8113;SDS011;4099;52.684;9.918;2023-07-20T15:03:46;4.93;;;3.60;;
8113;SDS011;4099;52.684;9.918;2023-07-20T15:08:50;7.43;;;3.57;;
8113;SDS011;4099;52.684;9.918;2023-07-20T15:13:53;2.13;;;1.93;;
8113;SDS011;4099;52.684;9.918;2023-07-20T15:18:56;4.10;;;2.60;;
8113;SDS011;4099;52.684;9.918;2023-07-20T15:23:58;2.13;;;1.80;;
8113;SDS011;4099;52.684;9.918;2023-07-20T15:29:01;5.00;;;2.30;;
8113;SDS011;4099;52.684;9.918;2023-07-20T15:34:03;2.57;;;2.23;;
8113;SDS011;4099;52.684;9.918;2023-07-20T15:39:05;2.20;;;1.77;;
8113;SDS011;4099;52.684;9.918;2023-07-20T15:44:08;2.80;;;1.30;;
8113;SDS011;4099;52.684;9.918;2023-07-20T15:49:10;1.83;;;1.23;;
8113;SDS011;4099;52.684;9.918;2023-07-20T15:54:12;4.07;;;1.27;;
8113;SDS011;4099;52.684;9.918;2023-07-20T15:59:16;1.67;;;1.20;;
8113;SDS011;4099;52.684;9.918;2023-07-20T16:04:18;2.40;;;1.17;;
8113;SDS011;4099;52.684;9.918;2023-07-20T16:09:20;2.77;;;1.30;;
8113;SDS011;4099;52.684;9.918;2023-07-20T16:14:23;1.63;;;1.07;;
8113;SDS011;4099;52.684;9.918;2023-07-20T16:19:25;1.33;;;1.10;;
8113;SDS011;4099;52.684;9.918;2023-07-20T16:24:27;1.63;;;1.00;;
8113;SDS011;4099;52.684;9.918;2023-07-20T16:29:30;1.37;;;1.20;;
8113;SDS011;4099;52.684;9.918;2023-07-20T16:34:32;2.40;;;1.30;;
8113;SDS011;4099;52.684;9.918;2023-07-20T16:39:33;1.20;;;1.10;;
8113;SDS011;4099;52.684;9.918;2023-07-20T16:44:41;1.93;;;1.17;;
8113;SDS011;4099;52.684;9.918;2023-07-20T16:49:44;0.97;;;0.90;;
8113;SDS011;4099;52.684;9.918;2023-07-20T16:54:46;1.80;;;1.10;;
8113;SDS011;4099;52.684;9.918;2023-07-20T16:59:49;3.10;;;1.50;;
8113;SDS011;4099;52.684;9.918;2023-07-20T17:04:51;1.83;;;1.20;;
8113;SDS011;4099;52.684;9.918;2023-07-20T17:09:53;1.50;;;1.40;;
8113;SDS011;4099;52.684;9.918;2023-07-20T17:14:56;1.53;;;1.33;;
8113;SDS011;4099;52.684;9.918;2023-07-20T17:19:58;1.40;;;1.10;;
8113;SDS011;4099;52.684;9.918;2023-07-20T17:25:00;2.83;;;1.30;;
8113;SDS011;4099;52.684;9.918;2023-07-20T17:30:03;2.03;;;1.17;;
8113;SDS011;4099;52.684;9.918;2023-07-20T17:35:06;1.20;;;1.10;;
8113;SDS011;4099;52.684;9.918;2023-07-20T17:40:13;1.37;;;0.90;;
8113;SDS011;4099;52.684;9.918;2023-07-20T17:45:17;1.20;;;0.97;;
8113;SDS011;4099;52.684;9.918;2023-07-20T17:50:19;1.37;;;1.27;;
8113;SDS011;4099;52.684;9.918;2023-07-20T17:55:22;2.73;;;0.93;;
8113;SDS011;4099;52.684;9.918;2023-07-20T18:00:25;2.23;;;1.23;;
8113;SDS011;4099;52.684;9.918;2023-07-20T18:05:27;2.53;;;1.07;;
8113;SDS011;4099;52.684;9.918;2023-07-20T18:10:29;1.97;;;1.17;;
8113;SDS011;4099;52.684;9.918;2023-07-20T18:15:32;2.03;;;1.30;;
8113;SDS011;4099;52.684;9.918;2023-07-20T18:20:34;1.57;;;1.20;;
8113;SDS011;4099;52.684;9.918;2023-07-20T18:25:36;1.60;;;1.00;;
8113;SDS011;4099;52.684;9.918;2023-07-20T18:30:40;2.83;;;1.17;;
8113;SDS011;4099;52.684;9.918;2023-07-20T18:35:42;2.00;;;1.33;;
8113;SDS011;4099;52.684;9.918;2023-07-20T18:40:44;2.77;;;1.40;;
8113;SDS011;4099;52.684;9.918;2023-07-20T18:45:47;2.50;;;1.20;;
8113;SDS011;4099;52.684;9.918;2023-07-20T18:50:53;2.17;;;1.20;;
8113;SDS011;4099;52.684;9.918;2023-07-20T18:55:57;1.53;;;1.43;;
8113;SDS011;4099;52.684;9.918;2023-07-20T19:01:00;2.40;;;1.30;;
8113;SDS011;4099;52.684;9.918;2023-07-20T19:06:02;2.10;;;1.37;;
8113;SDS011;4099;52.684;9.918;2023-07-20T19:11:05;1.97;;;1.37;;
8113;SDS011;4099;52.684;9.918;2023-07-20T19:16:09;1.20;;;1.10;;
8113;SDS011;4099;52.684;9.918;2023-07-20T19:21:11;1.20;;;1.07;;
8113;SDS011;4099;52.684;9.918;2023-07-20T19:26:14;2.47;;;1.07;;
8113;SDS011;4099;52.684;9.918;2023-07-20T19:31:17;2.27;;;1.20;;
8113;SDS011;4099;52.684;9.918;2023-07-20T19:36:19;1.90;;;1.37;;
8113;SDS011;4099;52.684;9.918;2023-07-20T19:41:21;1.93;;;1.40;;
8113;SDS011;4099;52.684;9.918;2023-07-20T19:46:24;3.00;;;1.63;;
8113;SDS011;4099;52.684;9.918;2023-07-20T19:51:26;1.60;;;1.20;;
8113;SDS011;4099;52.684;9.918;2023-07-20T19:56:28;1.93;;;1.20;;
8113;SDS011;4099;52.684;9.918;2023-07-20T20:01:31;2.07;;;1.20;;
8113;SDS011;4099;52.684;9.918;2023-07-20T20:06:33;2.67;;;1.27;;
8113;SDS011;4099;52.684;9.918;2023-07-20T20:11:35;2.07;;;1.33;;
8113;SDS011;4099;52.684;9.918;2023-07-20T20:16:38;1.70;;;1.57;;
8113;SDS011;4099;52.684;9.918;2023-07-20T20:21:40;2.13;;;1.97;;
8113;SDS011;4099;52.684;9.918;2023-07-20T20:26:42;2.17;;;1.90;;
8113;SDS011;4099;52.684;9.918;2023-07-20T20:31:45;2.93;;;2.00;;
8113;SDS011;4099;52.684;9.918;2023-07-20T20:36:47;3.23;;;2.40;;
8113;SDS011;4099;52.684;9.918;2023-07-20T20:41:49;3.70;;;2.40;;
8113;SDS011;4099;52.684;9.918;2023-07-20T20:46:52;3.23;;;2.40;;
8113;SDS011;4099;52.684;9.918;2023-07-20T20:52:00;4.47;;;2.60;;
8113;SDS011;4099;52.684;9.918;2023-07-20T20:57:02;3.47;;;2.10;;
8113;SDS011;4099;52.684;9.918;2023-07-20T21:02:06;6.40;;;2.40;;
8113;SDS011;4099;52.684;9.918;2023-07-20T21:07:09;3.37;;;2.17;;
8113;SDS011;4099;52.684;9.918;2023-07-20T21:12:11;2.20;;;1.90;;
8113;SDS011;4099;52.684;9.918;2023-07-20T21:17:14;2.20;;;2.00;;
8113;SDS011;4099;52.684;9.918;2023-07-20T21:22:16;2.40;;;2.07;;
8113;SDS011;4099;52.684;9.918;2023-07-20T21:27:18;2.00;;;1.80;;
8113;SDS011;4099;52.684;9.918;2023-07-20T21:32:21;2.93;;;2.40;;
8113;SDS011;4099;52.684;9.918;2023-07-20T21:37:22;2.20;;;2.00;;
8113;SDS011;4099;52.684;9.918;2023-07-20T21:42:24;3.03;;;2.20;;
8113;SDS011;4099;52.684;9.918;2023-07-20T21:47:27;4.27;;;2.50;;
8113;SDS011;4099;52.684;9.918;2023-07-20T21:52:29;2.77;;;2.43;;
8113;SDS011;4099;52.684;9.918;2023-07-20T21:57:31;3.13;;;2.50;;
8113;SDS011;4099;52.684;9.918;2023-07-20T22:02:34;3.33;;;2.60;;
8113;SDS011;4099;52.684;9.918;2023-07-20T22:07:36;3.67;;;2.33;;
8113;SDS011;4099;52.684;9.918;2023-07-20T22:12:38;4.23;;;2.97;;
8113;SDS011;4099;52.684;9.918;2023-07-20T22:17:41;2.87;;;2.40;;
8113;SDS011;4099;52.684;9.918;2023-07-20T22:22:43;2.70;;;2.50;;
8113;SDS011;4099;52.684;9.918;2023-07-20T22:27:45;3.20;;;2.90;;
8113;SDS011;4099;52.684;9.918;2023-07-20T22:32:48;2.80;;;2.60;;
8113;SDS011;4099;52.684;9.918;2023-07-20T22:37:50;2.53;;;2.33;;
8113;SDS011;4099;52.684;9.918;2023-07-20T22:42:52;3.70;;;2.40;;
8113;SDS011;4099;52.684;9.918;2023-07-20T22:47:55;2.97;;;2.20;;
8113;SDS011;4099;52.684;9.918;2023-07-20T22:52:57;3.53;;;2.50;;
8113;SDS011;4099;52.684;9.918;2023-07-20T22:57:59;2.63;;;2.10;;
8113;SDS011;4099;52.684;9.918;2023-07-20T23:03:02;3.97;;;1.90;;
8113;SDS011;4099;52.684;9.918;2023-07-20T23:08:04;2.30;;;2.10;;
8113;SDS011;4099;52.684;9.918;2023-07-20T23:13:06;5.00;;;3.17;;
8113;SDS011;4099;52.684;9.918;2023-07-20T23:18:10;2.80;;;2.50;;
8113;SDS011;4099;52.684;9.918;2023-07-20T23:23:12;2.43;;;1.93;;
8113;SDS011;4099;52.684;9.918;2023-07-20T23:28:14;3.20;;;2.20;;
8113;SDS011;4099;52.684;9.918;2023-07-20T23:33:18;4.50;;;2.50;;
8113;SDS011;4099;52.684;9.918;2023-07-20T23:38:21;2.63;;;2.17;;
8113;SDS011;4099;52.684;9.918;2023-07-20T23:43:23;3.73;;;2.23;;
8113;SDS011;4099;52.684;9.918;2023-07-20T23:48:26;2.73;;;2.13;;
8113;SDS011;4099;52.684;9.918;2023-07-20T23:53:32;2.73;;;2.53;;
8113;SDS011;4099;52.684;9.918;2023-07-20T23:58:35;2.30;;;2.10;;
